Time;durP1;ratioP1;P1;durP2;ratioP2;P2;SDS_P1;SDS_P2;PMS_P1;PMS_P2;Temp;Humidity;BMP_temperature;BMP_pressure;BME280_temperature;BME280_humidity;BME280_pressure;Samples;Min_cycle;Max_cycle;Signal;HPM_P1;HPM_P2
2021/07/12 00:01:04;;;;;;;34.95;15.60;;;;;;;21.73;100.00;100736.50;1612416;89;20874;-80
2021/07/12 00:03:30;;;;;;;29.77;16.02;;;;;;;21.73;100.00;100732.96;1612500;89;21158;-76
2021/07/12 00:05:56;;;;;;;26.52;14.87;;;;;;;21.73;100.00;100737.88;1610009;89;21005;-81
2021/07/12 00:08:22;;;;;;;30.50;15.38;;;;;;;21.71;100.00;100737.42;1608005;89;21022;-80
2021/07/12 00:10:48;;;;;;;32.98;14.65;;;;;;;21.69;100.00;100741.05;1608038;89;21088;-75
2021/07/12 00:13:14;;;;;;;34.70;15.43;;;;;;;21.69;100.00;100746.54;1608318;89;21564;-81
2021/07/12 00:15:40;;;;;;;32.58;14.87;;;;;;;21.67;100.00;100744.69;1608375;89;21294;-75
2021/07/12 00:18:06;;;;;;;28.90;14.75;;;;;;;21.68;100.00;100742.77;1607407;88;21151;-74
2021/07/12 00:20:32;;;;;;;32.00;15.93;;;;;;;21.67;100.00;100741.14;1603987;89;20985;-74
2021/07/12 00:22:58;;;;;;;26.95;14.83;;;;;;;21.65;100.00;100753.01;1603898;89;20971;-73
2021/07/12 00:25:26;;;;;;;40.92;15.18;;;;;;;21.68;100.00;100749.06;1582807;89;21274;-75
2021/07/12 00:27:52;;;;;;;37.15;15.72;;;;;;;21.66;100.00;100754.64;1603898;89;21445;-76
2021/07/12 00:30:21;;;;;;;33.73;17.62;;;;;;;21.67;100.00;100765.27;1603935;89;21779;-74
2021/07/12 00:32:49;;;;;;;41.02;17.73;;;;;;;21.66;100.00;100765.03;1603987;89;21108;-72
2021/07/12 00:35:15;;;;;;;38.00;17.37;;;;;;;21.63;100.00;100753.35;1609709;87;21060;-79
2021/07/12 00:37:43;;;;;;;30.10;16.73;;;;;;;21.60;100.00;100744.98;1636841;87;21047;-73
2021/07/12 00:40:13;;;;;;;35.90;16.50;;;;;;;21.55;100.00;100754.19;1636903;87;21872;-75
2021/07/12 00:42:40;;;;;;;38.10;17.52;;;;;;;21.52;100.00;100760.34;1636880;87;21087;-75
2021/07/12 00:45:11;;;;;;;33.00;16.90;;;;;;;21.47;100.00;100760.52;1637010;87;21095;-74
2021/07/12 00:47:37;;;;;;;33.23;17.12;;;;;;;21.48;100.00;100760.77;1636929;87;21102;-75
2021/07/12 00:50:06;;;;;;;35.65;17.73;;;;;;;21.52;100.00;100752.11;1636686;87;21235;-80
2021/07/12 00:52:33;;;;;;;30.68;16.97;;;;;;;21.51;100.00;100749.14;1637016;86;21927;-75
2021/07/12 00:54:59;;;;;;;34.73;16.55;;;;;;;21.48;100.00;100748.43;1636919;87;21410;-80
2021/07/12 00:57:26;;;;;;;33.25;16.97;;;;;;;21.39;100.00;100753.95;1636977;87;21040;-74
2021/07/12 00:59:52;;;;;;;33.90;16.15;;;;;;;21.34;100.00;100749.98;1618647;87;21043;-74
2021/07/12 01:02:18;;;;;;;37.65;17.15;;;;;;;21.31;100.00;100745.16;1636804;87;21063;-76
2021/07/12 01:04:44;;;;;;;35.08;15.90;;;;;;;21.24;100.00;100744.30;1636729;87;21469;-80
2021/07/12 01:07:10;;;;;;;35.78;16.20;;;;;;;21.27;100.00;100748.33;1636980;87;20988;-75
2021/07/12 01:09:37;;;;;;;37.13;17.40;;;;;;;21.27;100.00;100746.39;1636719;87;21571;-73
2021/07/12 01:12:16;;;;;;;40.05;17.40;;;;;;;21.24;100.00;100747.62;1636993;86;21528;-75
2021/07/12 01:15:12;;;;;;;28.98;16.27;;;;;;;21.22;100.00;100752.61;1635420;86;21066;-75
2021/07/12 01:18:06;;;;;;;33.40;17.17;;;;;;;21.22;100.00;100749.30;1636768;87;21155;-75
2021/07/12 01:21:27;;;;;;;32.53;17.45;;;;;;;21.20;100.00;100752.92;1640948;86;21073;-75
2021/07/12 01:24:16;;;;;;;33.35;18.12;;;;;;;21.08;100.00;100760.45;1551464;91;21113;-73
2021/07/12 01:27:14;;;;;;;39.03;18.32;;;;;;;21.08;100.00;100756.92;1522321;92;21072;-75
2021/07/12 01:30:15;;;;;;;42.83;18.23;;;;;;;21.08;100.00;100758.29;1551387;90;21037;-74
2021/07/12 01:33:17;;;;;;;39.98;17.52;;;;;;;21.03;100.00;100758.45;1548011;90;21053;-75
2021/07/12 01:35:57;;;;;;;42.60;18.52;;;;;;;21.02;100.00;100762.34;1551450;90;21065;-73
2021/07/12 01:38:59;;;;;;;32.70;17.75;;;;;;;20.98;100.00;100766.87;1549287;90;21101;-74
2021/07/12 01:42:06;;;;;;;33.38;17.20;;;;;;;20.96;100.00;100765.01;1551482;90;21028;-79
2021/07/12 01:44:58;;;;;;;31.20;16.45;;;;;;;20.93;100.00;100761.55;1551610;90;21835;-76
2021/07/12 01:47:50;;;;;;;32.45;16.42;;;;;;;20.81;100.00;100764.39;1551519;91;22166;-79
2021/07/12 01:50:24;;;;;;;34.73;17.90;;;;;;;20.78;100.00;100765.03;1551407;90;21054;-74
2021/07/12 01:53:19;;;;;;;38.75;18.07;;;;;;;20.82;100.00;100772.03;1549577;91;21144;-76
2021/07/12 01:56:09;;;;;;;36.58;16.80;;;;;;;20.84;100.00;100771.95;1548662;92;21153;-79
2021/07/12 01:58:56;;;;;;;38.33;17.67;;;;;;;20.86;100.00;100776.55;1618207;87;21547;-79
2021/07/12 02:01:25;;;;;;;32.58;16.27;;;;;;;20.87;100.00;100774.61;1599710;89;21124;-75
2021/07/12 02:03:53;;;;;;;38.55;17.15;;;;;;;20.86;100.00;100775.19;1600745;88;21021;-75
2021/07/12 02:06:20;;;;;;;33.55;17.50;;;;;;;20.90;100.00;100777.27;1600876;89;21122;-75
2021/07/12 02:08:50;;;;;;;78.47;33.20;;;;;;;20.94;100.00;100779.59;1581374;89;21090;-73
2021/07/12 02:11:17;;;;;;;102.70;40.55;;;;;;;20.98;100.00;100782.73;1601078;88;21043;-75
2021/07/12 02:13:51;;;;;;;53.65;25.23;;;;;;;21.01;100.00;100787.56;1600766;89;21135;-75
2021/07/12 02:16:20;;;;;;;59.10;26.60;;;;;;;20.96;100.00;100785.56;1601180;89;21067;-75
2021/07/12 02:18:47;;;;;;;39.80;19.10;;;;;;;20.98;100.00;100780.57;1600691;88;21143;-73
2021/07/12 02:21:15;;;;;;;41.98;20.75;;;;;;;21.03;100.00;100784.48;1600963;89;21082;-74
2021/07/12 02:23:43;;;;;;;38.30;18.77;;;;;;;21.06;100.00;100781.09;1601092;88;21113;-76
2021/07/12 02:26:13;;;;;;;38.15;19.37;;;;;;;21.11;100.00;100785.03;1600805;89;21945;-77
2021/07/12 02:28:44;;;;;;;40.30;18.87;;;;;;;21.16;100.00;100784.88;1600830;88;21147;-75
2021/07/12 02:31:12;;;;;;;35.55;18.30;;;;;;;21.21;100.00;100786.08;1600982;89;21510;-75
2021/07/12 02:33:41;;;;;;;56.33;19.02;;;;;;;21.28;100.00;100784.20;1619230;87;21115;-76
2021/07/12 02:36:08;;;;;;;38.33;18.45;;;;;;;21.36;100.00;100782.57;1612989;89;21629;-74
2021/07/12 02:38:38;;;;;;;33.60;17.65;;;;;;;21.46;100.00;100787.14;1626536;88;21509;-82
2021/07/12 02:41:05;;;;;;;34.00;16.40;;;;;;;21.55;100.00;100785.73;1631994;86;21010;-75
2021/07/12 02:43:34;;;;;;;39.05;17.30;;;;;;;21.64;100.00;100785.13;1654681;86;20990;-75
2021/07/12 02:46:01;;;;;;;36.00;18.35;;;;;;;21.72;100.00;100785.66;1654621;86;21010;-81
2021/07/12 02:48:28;;;;;;;35.43;17.48;;;;;;;21.82;100.00;100792.70;1632397;86;21008;-74
2021/07/12 02:50:56;;;;;;;37.35;17.57;;;;;;;21.89;100.00;100790.26;1654355;86;21135;-81
2021/07/12 02:53:33;;;;;;;41.70;17.98;;;;;;;21.97;100.00;100788.03;1651347;86;21025;-79
2021/07/12 02:55:59;;;;;;;37.85;17.95;;;;;;;22.15;100.00;100788.73;1652543;86;21019;-77
2021/07/12 02:58:26;;;;;;;30.55;17.50;;;;;;;22.36;100.00;100786.59;1654720;86;21030;-76
2021/07/12 03:00:52;;;;;;;31.20;15.68;;;;;;;22.50;100.00;100779.44;1654682;86;21031;-76
2021/07/12 03:03:18;;;;;;;38.40;17.00;;;;;;;22.63;100.00;100780.55;1654413;86;21087;-78
2021/07/12 03:05:44;;;;;;;33.75;16.57;;;;;;;22.81;100.00;100781.76;1654582;86;21108;-76
2021/07/12 03:08:33;;;;;;;32.80;16.60;;;;;;;22.90;100.00;100774.23;1654580;86;20899;-75
2021/07/12 03:11:01;;;;;;;28.30;14.55;;;;;;;22.99;100.00;100768.67;1560995;90;21495;-75
2021/07/12 03:13:45;;;;;;;28.70;15.63;;;;;;;23.17;100.00;100776.16;1581848;89;21135;-74
2021/07/12 03:16:13;;;;;;;27.32;15.45;;;;;;;23.34;100.00;100775.97;1506558;94;21245;-76
2021/07/12 03:18:52;;;;;;;26.37;15.15;;;;;;;23.51;100.00;100770.26;1485894;95;21070;-75
2021/07/12 03:21:20;;;;;;;26.48;14.33;;;;;;;23.66;100.00;100774.27;1517604;94;21523;-76
2021/07/12 03:23:48;;;;;;;24.90;13.98;;;;;;;23.98;100.00;100776.69;1502929;95;21043;-73
2021/07/12 03:26:19;;;;;;;25.60;13.98;;;;;;;24.42;100.00;100772.72;1502980;95;21090;-79
2021/07/12 03:28:49;;;;;;;22.67;13.30;;;;;;;24.91;100.00;100770.32;1502908;95;21174;-79
2021/07/12 03:31:21;;;;;;;21.55;12.68;;;;;;;25.44;100.00;100767.38;1473435;96;21102;-78
2021/07/12 03:33:48;;;;;;;21.80;12.53;;;;;;;26.02;100.00;100772.53;1477255;97;21121;-75
2021/07/12 03:36:14;;;;;;;21.85;12.20;;;;;;;26.47;100.00;100770.32;1477162;96;21117;-80
2021/07/12 03:38:40;;;;;;;20.45;12.00;;;;;;;26.78;100.00;100769.40;1477370;97;21084;-76
2021/07/12 03:41:09;;;;;;;21.15;12.65;;;;;;;27.31;100.00;100768.80;1477195;97;21788;-74
2021/07/12 03:43:41;;;;;;;23.70;12.33;;;;;;;27.75;100.00;100765.55;1477114;97;46104;-74
2021/07/12 03:46:09;;;;;;;22.60;12.25;;;;;;;28.03;100.00;100770.16;1485211;95;21111;-75
2021/07/12 03:48:46;;;;;;;21.73;12.68;;;;;;;28.20;100.00;100764.62;1491301;96;21549;-81
2021/07/12 03:51:22;;;;;;;20.60;11.75;;;;;;;28.50;100.00;100771.59;1491276;96;21161;-80
2021/07/12 03:53:49;;;;;;;20.40;12.00;;;;;;;28.76;100.00;100762.34;1489104;96;21211;-80
2021/07/12 03:56:15;;;;;;;21.65;12.00;;;;;;;28.92;100.00;100766.30;1491328;96;21188;-79
2021/07/12 03:58:41;;;;;;;18.65;11.30;;;;;;;29.41;100.00;100762.42;1491217;96;21119;-76
2021/07/12 04:01:08;;;;;;;20.70;11.60;;;;;;;29.81;100.00;100763.52;1491376;96;21183;-76
2021/07/12 04:03:33;;;;;;;18.55;11.00;;;;;;;29.93;100.00;100768.55;1491291;96;21141;-77
2021/07/12 04:06:00;;;;;;;21.62;11.45;;;;;;;30.32;100.00;100775.13;1491175;96;21220;-82
2021/07/12 04:08:26;;;;;;;17.55;11.48;;;;;;;30.48;100.00;100767.06;1556993;91;21066;-75
2021/07/12 04:10:52;;;;;;;17.92;11.57;;;;;;;30.56;100.00;100763.09;1574874;91;20930;-77
2021/07/12 04:13:18;;;;;;;18.27;10.98;;;;;;;30.94;100.00;100774.75;1596253;89;21520;-77
2021/07/12 04:15:44;;;;;;;16.82;11.50;;;;;;;31.32;100.00;100767.62;1601048;88;20923;-77
2021/07/12 04:18:11;;;;;;;16.05;11.57;;;;;;;31.44;98.59;100767.86;1600771;88;21082;-76
2021/07/12 04:20:37;;;;;;;21.62;11.30;;;;;;;31.70;98.39;100761.67;1589814;89;20931;-76
2021/07/12 04:23:05;;;;;;;16.73;11.10;;;;;;;31.98;94.66;100760.86;1600748;89;21533;-76
2021/07/12 04:25:31;;;;;;;18.80;11.83;;;;;;;32.23;89.58;100756.58;1601248;89;21079;-74
2021/07/12 04:27:57;;;;;;;16.48;11.08;;;;;;;32.35;93.80;100758.91;1600937;88;21081;-80
2021/07/12 04:30:25;;;;;;;18.85;11.22;;;;;;;32.91;91.85;100758.42;1600995;89;21103;-77
2021/07/12 04:32:51;;;;;;;16.27;10.70;;;;;;;33.25;84.83;100759.22;1600880;89;21089;-77
2021/07/12 04:35:17;;;;;;;14.95;11.43;;;;;;;33.43;81.24;100760.45;1600672;89;21083;-77
2021/07/12 04:37:45;;;;;;;16.77;10.80;;;;;;;33.51;81.09;100762.59;1581145;88;20909;-83
2021/07/12 04:40:12;;;;;;;21.55;11.60;;;;;;;33.89;80.13;100762.83;1600487;89;21046;-77
2021/07/12 04:42:39;;;;;;;15.18;10.63;;;;;;;34.25;75.57;100758.85;1601086;88;21093;-77
2021/07/12 04:45:06;;;;;;;15.93;11.00;;;;;;;34.54;72.23;100757.88;1600886;89;21079;-81
2021/07/12 04:47:32;;;;;;;17.62;12.18;;;;;;;34.92;72.19;100756.36;1600750;89;21081;-77
2021/07/12 04:49:59;;;;;;;20.43;12.28;;;;;;;35.34;66.20;100758.30;1611376;88;21067;-77
2021/07/12 04:52:24;;;;;;;27.42;13.38;;;;;;;35.27;62.97;100757.83;1600789;88;21025;-80
2021/07/12 04:54:51;;;;;;;24.50;13.72;;;;;;;34.91;62.78;100758.34;1601119;88;21090;-77
2021/07/12 04:57:17;;;;;;;28.02;14.05;;;;;;;34.92;61.97;100751.55;1600915;89;22885;-75
2021/07/12 04:59:43;;;;;;;25.02;13.55;;;;;;;34.65;63.75;100750.73;1600893;88;20938;-76
2021/07/12 05:02:13;;;;;;;38.23;14.00;;;;;;;34.96;65.71;100756.47;1600572;87;21499;-77
2021/07/12 05:04:40;;;;;;;30.85;13.80;;;;;;;35.41;64.23;100758.17;1600982;88;21156;-76
2021/07/12 05:07:10;;;;;;;33.48;13.60;;;;;;;35.77;61.66;100762.57;1600745;89;21396;-82
2021/07/12 05:09:36;;;;;;;29.02;13.20;;;;;;;36.22;58.56;100752.89;1600407;89;21017;-77
2021/07/12 05:12:02;;;;;;;27.00;13.90;;;;;;;36.34;58.96;100750.20;1600941;89;21039;-77
2021/07/12 05:14:29;;;;;;;20.52;12.80;;;;;;;36.67;57.20;100750.92;1600992;88;21054;-77
2021/07/12 05:16:55;;;;;;;21.27;13.58;;;;;;;37.14;55.20;100750.02;1600540;89;21106;-76
2021/07/12 05:19:21;;;;;;;19.77;12.60;;;;;;;37.17;55.80;100739.92;1600717;88;22006;-77
2021/07/12 05:21:47;;;;;;;22.35;13.15;;;;;;;37.62;52.70;100744.79;1600813;88;20925;-75
2021/07/12 05:24:14;;;;;;;29.87;15.45;;;;;;;37.96;50.89;100745.69;1607695;89;21125;-77
2021/07/12 05:26:41;;;;;;;29.30;15.75;;;;;;;37.46;48.53;100747.00;1641173;86;21079;-77
2021/07/12 05:29:06;;;;;;;27.20;13.75;;;;;;;37.44;49.06;100744.63;1600789;88;20994;-79
2021/07/12 05:31:32;;;;;;;23.25;13.05;;;;;;;37.56;49.73;100748.76;1600915;88;21205;-77
2021/07/12 05:33:58;;;;;;;21.45;12.70;;;;;;;37.92;49.69;100752.80;1601117;89;21736;-83
2021/07/12 05:36:24;;;;;;;21.75;14.43;;;;;;;38.24;48.35;100752.53;1601178;89;20975;-77
2021/07/12 05:38:50;;;;;;;19.85;13.55;;;;;;;38.04;46.84;100757.55;1601154;88;20901;-77
2021/07/12 05:41:16;;;;;;;16.00;12.93;;;;;;;37.84;49.00;100756.27;1600901;89;20907;-75
2021/07/12 05:43:41;;;;;;;20.40;13.40;;;;;;;38.55;49.58;100757.66;1601108;88;21166;-78
2021/07/12 05:46:07;;;;;;;21.33;13.30;;;;;;;39.03;47.02;100750.09;1600944;89;20942;-75
2021/07/12 05:48:33;;;;;;;17.87;12.53;;;;;;;39.60;45.25;100755.23;1601151;88;20953;-76
2021/07/12 05:50:59;;;;;;;20.23;13.28;;;;;;;40.12;45.20;100752.36;1600956;89;21534;-78
2021/07/12 05:53:25;;;;;;;18.82;12.75;;;;;;;40.51;41.82;100750.70;1601007;88;21548;-75
2021/07/12 05:55:51;;;;;;;18.10;12.98;;;;;;;40.23;42.58;100755.42;1601160;89;21067;-75
2021/07/12 05:58:17;;;;;;;22.65;13.78;;;;;;;40.18;41.91;100760.43;1600947;88;20894;-83
2021/07/12 06:00:44;;;;;;;20.48;12.63;;;;;;;40.35;42.50;100758.78;1600994;87;21149;-73
2021/07/12 06:03:10;;;;;;;21.57;13.20;;;;;;;40.98;41.15;100753.26;1600977;89;21572;-75
2021/07/12 06:05:36;;;;;;;20.60;12.90;;;;;;;41.34;40.16;100753.19;1601155;89;20919;-75
2021/07/12 06:08:03;;;;;;;31.12;17.60;;;;;;;41.63;38.53;100753.39;1601057;89;21022;-74
2021/07/12 06:10:29;;;;;;;18.25;13.35;;;;;;;41.90;38.71;100749.77;1601067;89;21503;-77
2021/07/12 06:12:55;;;;;;;21.07;12.70;;;;;;;41.96;38.27;100763.45;1597709;88;21009;-79
2021/07/12 06:15:21;;;;;;;23.85;14.30;;;;;;;41.54;37.41;100761.25;1601013;89;21055;-80
2021/07/12 06:17:47;;;;;;;18.57;13.62;;;;;;;41.46;37.81;100762.15;1600780;88;21543;-75
2021/07/12 06:20:18;;;;;;;17.30;13.50;;;;;;;41.91;39.18;100754.95;1601308;88;21387;-77
2021/07/12 06:22:46;;;;;;;19.48;13.03;;;;;;;42.46;36.65;100756.89;1607580;88;21031;-77
2021/07/12 06:25:14;;;;;;;22.15;13.03;;;;;;;41.74;35.91;100760.14;1657854;85;21103;-76
2021/07/12 06:27:40;;;;;;;20.00;12.58;;;;;;;41.36;37.52;100754.11;1657510;85;21051;-77
2021/07/12 06:30:07;;;;;;;24.82;13.22;;;;;;;41.73;37.77;100757.14;1657788;86;21031;-74
2021/07/12 06:32:35;;;;;;;17.87;12.00;;;;;;;42.31;36.08;100761.03;1657583;85;21998;-76
2021/07/12 06:35:02;;;;;;;17.55;12.90;;;;;;;42.42;35.74;100766.98;1616420;88;21828;-80
2021/07/12 06:37:28;;;;;;;19.35;13.68;;;;;;;42.73;36.05;100765.15;1657605;86;21488;-77
2021/07/12 06:39:54;;;;;;;17.67;13.53;;;;;;;43.01;34.49;100762.33;1657868;86;21020;-77
2021/07/12 06:42:20;;;;;;;20.02;14.68;;;;;;;43.15;34.33;100767.92;1657929;86;20999;-77
2021/07/12 06:44:46;;;;;;;17.05;12.35;;;;;;;43.14;35.35;100767.00;1616697;88;21018;-76
2021/07/12 06:47:12;;;;;;;17.45;13.18;;;;;;;43.78;34.72;100770.00;1631162;86;20986;-77
2021/07/12 06:49:38;;;;;;;18.35;12.75;;;;;;;43.91;33.71;100776.17;1657608;86;20908;-76
2021/07/12 06:52:04;;;;;;;15.80;12.82;;;;;;;44.25;34.30;100776.81;1616623;87;20902;-78
2021/07/12 06:54:30;;;;;;;18.42;11.97;;;;;;;44.79;31.95;100776.81;1657546;86;21361;-78
2021/07/12 06:56:56;;;;;;;22.82;12.93;;;;;;;44.90;32.66;100776.20;1616725;88;21958;-75
2021/07/12 06:59:22;;;;;;;20.05;12.53;;;;;;;44.29;30.88;100784.49;1657737;86;20896;-77
2021/07/12 07:01:48;;;;;;;15.10;11.33;;;;;;;43.20;31.87;100777.19;1631265;86;20912;-77
2021/07/12 07:04:14;;;;;;;17.82;11.30;;;;;;;43.76;33.08;100781.20;1657511;86;21095;-78
2021/07/12 07:06:40;;;;;;;18.12;11.90;;;;;;;44.13;31.93;100777.26;1616698;87;21076;-77
2021/07/12 07:09:06;;;;;;;21.55;14.35;;;;;;;43.44;31.83;100780.01;1657789;85;20991;-76
2021/07/12 07:11:33;;;;;;;28.07;15.98;;;;;;;43.37;33.09;100776.14;1616499;87;20993;-76
2021/07/12 07:14:01;;;;;;;15.18;11.93;;;;;;;43.62;32.56;100776.91;1657290;86;21577;-81
2021/07/12 07:16:27;;;;;;;18.40;12.40;;;;;;;43.37;32.07;100776.14;1657638;86;21433;-75
2021/07/12 07:18:54;;;;;;;20.43;13.65;;;;;;;43.64;33.42;100770.89;1616379;88;21082;-75
2021/07/12 07:21:19;;;;;;;19.90;11.83;;;;;;;44.40;32.19;100774.12;1631173;86;21046;-77
2021/07/12 07:23:46;;;;;;;14.38;11.05;;;;;;;44.65;31.79;100773.33;1645684;86;21736;-78
2021/07/12 07:26:13;;;;;;;13.85;11.22;;;;;;;45.07;31.28;100777.22;1641431;87;21564;-77
2021/07/12 07:28:40;;;;;;;20.02;11.12;;;;;;;44.56;31.19;100777.72;1641121;86;21551;-77
2021/07/12 07:31:06;;;;;;;15.18;11.08;;;;;;;45.18;31.76;100774.39;1641210;87;21536;-76
2021/07/12 07:33:32;;;;;;;17.57;11.57;;;;;;;46.05;29.86;100775.03;1641532;87;21148;-77
2021/07/12 07:35:59;;;;;;;20.72;11.63;;;;;;;45.51;29.79;100779.77;1600893;88;21015;-77
2021/07/12 07:38:26;;;;;;;21.70;11.28;;;;;;;45.63;30.04;100780.67;1600694;88;21017;-81
2021/07/12 07:40:53;;;;;;;15.25;11.33;;;;;;;44.88;29.38;100777.33;1601037;89;21126;-77
2021/07/12 07:43:19;;;;;;;15.40;11.03;;;;;;;44.07;30.15;100774.31;1600462;89;21526;-78
2021/07/12 07:45:46;;;;;;;14.63;11.00;;;;;;;44.39;29.93;100783.16;1605098;87;21118;-79
2021/07/12 07:48:12;;;;;;;12.37;11.08;;;;;;;44.52;30.63;100777.16;1604955;89;21106;-78
2021/07/12 07:50:39;;;;;;;15.15;11.57;;;;;;;45.09;29.63;100783.82;1604872;89;21008;-80
2021/07/12 07:53:07;;;;;;;16.85;10.48;;;;;;;45.59;28.94;100774.40;1603584;89;21560;-80
2021/07/12 07:55:34;;;;;;;13.65;10.72;;;;;;;45.10;29.03;100775.45;1604189;89;21083;-80
2021/07/12 07:58:00;;;;;;;14.68;9.83;;;;;;;44.84;28.51;100772.50;1605935;88;21900;-80
2021/07/12 08:00:29;;;;;;;15.32;9.85;;;;;;;44.16;29.15;100777.70;1574651;89;20990;-80
2021/07/12 08:02:56;;;;;;;15.15;10.35;;;;;;;44.22;30.06;100771.47;1568866;91;21064;-80
2021/07/12 08:05:22;;;;;;;12.80;10.65;;;;;;;45.17;29.52;100770.77;1569104;91;21067;-78
2021/07/12 08:07:48;;;;;;;16.77;11.28;;;;;;;44.96;28.89;100772.02;1568982;91;21095;-81
2021/07/12 08:10:18;;;;;;;18.02;10.98;;;;;;;44.81;28.91;100764.95;1568994;91;21279;-79
2021/07/12 08:12:45;;;;;;;14.83;11.08;;;;;;;44.26;30.05;100762.09;1569020;91;21092;-79
2021/07/12 08:15:13;;;;;;;13.18;10.65;;;;;;;44.85;30.95;100759.83;1569446;91;21262;-79
2021/07/12 08:17:41;;;;;;;12.50;10.13;;;;;;;45.35;28.70;100755.46;1569132;91;21049;-79
2021/07/12 08:20:11;;;;;;;14.45;10.20;;;;;;;45.73;28.67;100753.58;1568800;91;21087;-81
2021/07/12 08:22:37;;;;;;;14.97;10.30;;;;;;;46.49;27.40;100751.06;1569815;91;21104;-75
2021/07/12 08:25:05;;;;;;;14.87;9.60;;;;;;;46.16;27.12;100746.64;1591429;88;20918;-75
2021/07/12 08:27:32;;;;;;;13.53;9.45;;;;;;;45.16;27.88;100750.72;1610329;88;21042;-79
2021/07/12 08:29:59;;;;;;;12.73;10.08;;;;;;;45.00;27.44;100755.50;1609793;88;20998;-77
2021/07/12 08:32:25;;;;;;;12.50;10.03;;;;;;;45.28;27.67;100747.37;1610385;88;21033;-79
2021/07/12 08:34:51;;;;;;;13.93;9.88;;;;;;;45.03;27.09;100753.86;1605299;88;21089;-78
2021/07/12 08:37:20;;;;;;;12.73;9.60;;;;;;;44.01;27.94;100745.64;1610369;88;21038;-78
2021/07/12 08:39:46;;;;;;;13.25;9.55;;;;;;;44.11;29.61;100733.69;1610321;88;21116;-77
2021/07/12 08:42:13;;;;;;;13.05;9.60;;;;;;;44.44;29.17;100745.48;1585097;88;21264;-83
2021/07/12 08:44:39;;;;;;;21.12;9.63;;;;;;;44.00;28.54;100740.59;1610360;88;21065;-78
2021/07/12 08:47:07;;;;;;;14.03;9.58;;;;;;;42.57;30.21;100743.62;1610248;88;21036;-78
2021/07/12 08:49:35;;;;;;;11.90;9.25;;;;;;;41.85;30.73;100746.91;1610108;88;21652;-79
2021/07/12 08:52:04;;;;;;;13.50;9.08;;;;;;;41.79;32.53;100743.77;1610317;88;21054;-82
2021/07/12 08:54:31;;;;;;;13.10;9.18;;;;;;;42.13;32.04;100736.98;1583749;89;21048;-75
2021/07/12 08:56:57;;;;;;;11.90;8.85;;;;;;;42.04;32.36;100744.88;1598767;89;21070;-77
2021/07/12 08:59:32;;;;;;;14.73;9.45;;;;;;;41.84;31.87;100738.90;1613901;88;21098;-78
2021/07/12 09:02:14;;;;;;;13.83;9.60;;;;;;;40.56;32.96;100745.84;1614024;88;21395;-78
2021/07/12 09:04:43;;;;;;;12.47;8.75;;;;;;;39.04;35.79;100733.38;1532585;93;21081;-82
2021/07/12 09:07:22;;;;;;;14.38;9.35;;;;;;;39.04;35.79;100733.38;1532620;93;21590;-77
2021/07/12 09:10:11;;;;;;;15.70;8.95;;;;;;;39.83;36.47;100734.28;1532783;93;21075;-77
2021/07/12 09:12:51;;;;;;;10.90;8.10;;;;;;;40.50;34.58;100730.12;1532411;93;21856;-75
2021/07/12 09:15:21;;;;;;;13.62;8.35;;;;;;;40.37;33.81;100733.69;1532630;93;21051;-77
2021/07/12 09:17:51;;;;;;;12.20;7.92;;;;;;;40.66;34.07;100723.48;1532599;93;21138;-79
2021/07/12 09:20:30;;;;;;;13.90;7.40;;;;;;;41.10;33.92;100720.48;1532383;93;21613;-76
2021/07/12 09:22:58;;;;;;;13.00;7.40;;;;;;;40.95;32.16;100719.48;1534215;92;21253;-77
2021/07/12 09:25:31;;;;;;;11.90;8.48;;;;;;;41.04;32.60;100723.73;1544384;92;21221;-78
2021/07/12 09:27:57;;;;;;;11.97;8.25;;;;;;;40.98;33.05;100678.33;1543087;92;21103;-76
2021/07/12 09:30:24;;;;;;;11.48;8.68;;;;;;;41.23;32.46;100709.79;1544386;92;21170;-78
2021/07/12 09:32:53;;;;;;;13.58;8.93;;;;;;;40.91;33.02;100705.47;1544477;92;21047;-78
2021/07/12 09:35:21;;;;;;;17.23;8.93;;;;;;;41.14;32.94;100704.13;1543220;92;21094;-77
2021/07/12 09:37:59;;;;;;;16.55;8.88;;;;;;;41.02;33.37;100695.91;1544330;92;21195;-77
2021/07/12 09:40:28;;;;;;;19.37;10.10;;;;;;;41.01;33.20;100697.81;1543528;91;21083;-78
2021/07/12 09:42:54;;;;;;;15.80;9.30;;;;;;;40.92;34.49;100709.08;1543364;93;21047;-78
2021/07/12 09:45:23;;;;;;;11.75;9.30;;;;;;;40.92;34.49;100709.08;1544186;92;20888;-77
2021/07/12 09:47:50;;;;;;;11.95;9.85;;;;;;;40.06;34.46;100714.65;1544233;92;21669;-81
2021/07/12 09:50:20;;;;;;;13.62;9.18;;;;;;;39.33;36.34;100719.13;1542776;91;22016;-75
2021/07/12 09:52:53;;;;;;;14.38;9.08;;;;;;;39.18;37.47;100715.98;1515541;94;21063;-78
2021/07/12 09:55:30;;;;;;;13.08;7.95;;;;;;;39.31;36.51;100711.73;1515670;94;21662;-76
2021/07/12 09:58:16;;;;;;;16.35;8.30;;;;;;;39.23;36.19;100701.28;1515428;93;21056;-77
2021/07/12 10:00:54;;;;;;;13.15;7.80;;;;;;;39.25;37.15;100706.47;1472784;94;21140;-83
2021/07/12 10:03:22;;;;;;;20.90;10.50;;;;;;;38.94;36.65;100702.09;1490983;94;21120;-77
2021/07/12 10:05:50;;;;;;;20.37;10.72;;;;;;;38.76;37.79;100696.39;1471272;96;21140;-76
2021/07/12 10:08:16;;;;;;;22.85;8.80;;;;;;;38.72;37.07;100697.77;1490521;95;21656;-81
2021/07/12 10:10:44;;;;;;;21.77;10.32;;;;;;;38.47;37.10;100698.55;1490940;94;21148;-76
2021/07/12 10:13:11;;;;;;;14.07;9.38;;;;;;;38.49;38.08;100694.67;1490672;95;21093;-76
2021/07/12 10:15:37;;;;;;;22.65;9.00;;;;;;;38.56;37.51;100695.84;1490414;94;21241;-77
2021/07/12 10:18:05;;;;;;;19.00;8.50;;;;;;;38.03;37.99;100693.41;1499243;92;21611;-77
2021/07/12 10:20:33;;;;;;;16.70;8.63;;;;;;;37.69;38.11;100691.95;1507358;93;21050;-77
2021/07/12 10:23:02;;;;;;;10.55;7.40;;;;;;;37.45;38.48;100686.38;1502753;92;21489;-79
2021/07/12 10:25:31;;;;;;;13.85;7.65;;;;;;;37.48;38.29;100691.94;1532330;92;21086;-76
2021/07/12 10:28:08;;;;;;;11.85;7.25;;;;;;;37.60;38.40;100691.81;1525353;93;21382;-74
2021/07/12 10:33:17;;;;;;;13.18;7.33;;;;;;;37.55;39.26;100691.56;1508020;94;21682;-75
2021/07/12 10:35:57;;;;;;;20.17;8.23;;;;;;;37.29;38.67;100683.76;1510821;92;21064;-74
2021/07/12 10:38:39;;;;;;;21.00;9.53;;;;;;;37.11;40.27;100692.50;1525245;92;21069;-77
2021/07/12 10:41:23;;;;;;;13.53;8.03;;;;;;;37.22;39.89;100692.39;1530498;91;21229;-76
2021/07/12 10:43:57;;;;;;;10.93;7.40;;;;;;;37.19;39.38;100689.69;1597974;89;21038;-74
2021/07/12 10:46:32;;;;;;;15.13;8.20;;;;;;;37.40;40.05;100683.48;1598170;89;21529;-76
2021/07/12 10:49:03;;;;;;;14.20;7.70;;;;;;;37.31;39.52;100680.52;1598261;89;21065;-76
2021/07/12 10:51:37;;;;;;;17.77;9.65;;;;;;;37.12;40.83;100680.80;1598107;89;21071;-77
2021/07/12 10:54:07;;;;;;;20.27;8.80;;;;;;;37.18;40.97;100672.03;1595761;89;21390;-75
2021/07/12 10:57:04;;;;;;;18.40;8.63;;;;;;;37.43;40.37;100669.16;1597843;89;21552;-76
2021/07/12 10:59:37;;;;;;;17.32;9.28;;;;;;;37.34;39.63;100676.03;1555614;92;21162;-77
2021/07/12 11:02:18;;;;;;;25.85;8.35;;;;;;;37.05;40.65;100666.95;1555692;92;21502;-76
2021/07/12 11:04:53;;;;;;;14.05;8.38;;;;;;;37.32;40.71;100668.66;1554963;92;21113;-78
2021/07/12 11:07:48;;;;;;;15.28;8.50;;;;;;;37.35;39.13;100667.77;1555729;92;21554;-79
2021/07/12 11:10:27;;;;;;;17.20;8.28;;;;;;;37.27;39.63;100670.00;1555492;92;21176;-80
2021/07/12 11:12:58;;;;;;;13.43;8.23;;;;;;;37.42;40.55;100666.18;1555886;92;21656;-82
2021/07/12 11:15:34;;;;;;;12.10;7.60;;;;;;;37.55;40.31;100662.81;1556022;92;21114;-79
2021/07/12 11:18:10;;;;;;;17.40;7.85;;;;;;;37.46;39.11;100661.23;1506111;94;21740;-85
2021/07/12 11:21:04;;;;;;;19.87;7.92;;;;;;;37.63;39.58;100659.19;1505962;95;23679;-84
2021/07/12 11:23:57;;;;;;;14.90;8.38;;;;;;;37.74;40.12;100659.68;1506802;94;21511;-80
2021/07/12 11:26:31;;;;;;;15.03;8.48;;;;;;;37.81;39.25;100679.78;1513718;93;21075;-81